Bookmark and Share
Track history (hours):
 

As Suwayq

Last reported at 2014-Apr-16 23:33 UTC. Time now 2014-Apr-24 03:51 UTC.
Position N 36°40' W 029°56'.

Length 333 m; draft 21.7 m.

Type: Tanker. MMSI: 538004576.

NotesDate/timePositionNaut miles runAvg speedWind from/ knotsBaromVisibWave heightAir tempDewpointWater temp
2014-Apr-16 23:33N 36°40' W 029°56'14311.7
2014-Apr-16 11:21N 36°40' W 026°57'911.9
2014-Apr-16 10:34N 36°40' W 026°46'1212.0
2014-Apr-16 09:33N 36°40' W 026°31'1212.3
2014-Apr-16 08:33N 36°40' W 026°15'1211.9
2014-Apr-16 07:33N 36°40' W 026°00'1212.1
2014-Apr-16 06:34N 36°40' W 025°45'1212.1
2014-Apr-16 05:34N 36°40' W 025°30'1212.0
2014-Apr-16 04:33N 36°40' W 025°15'1211.7
2014-Apr-16 03:33N 36°40' W 025°01'1211.8
2014-Apr-16 02:33N 36°40' W 024°46'1211.9
2014-Apr-16 01:34N 36°40' W 024°31'1211.9
2014-Apr-16 00:33N 36°40' W 024°16'1111.4
2014-Apr-15 23:34N 36°40' W 024°02'1211.5
2014-Apr-15 22:33N 36°40' W 023°48'1211.6
2014-Apr-15 21:33N 36°40' W 023°33'57112.1
2014-Apr-13 22:20N 36°12' W 011°45'10511.9
2014-Apr-13 13:31N 36°01' W 009°36'1611.7
2014-Apr-13 12:10N 35°60' W 009°16'8212.0
2014-Apr-13 05:19N 35°57' W 007°34'9612.1
2014-Apr-12 21:24N 35°58' W 005°36'910.1
2014-Apr-12 20:33N 35°60' W 005°26'10 9.6
2014-Apr-12 19:34N 36°02' W 005°15'34111.6
2014-Apr-11 14:05N 36°53' E 001°45'610.9
2014-Apr-11 13:32N 36°54' E 001°52'1111.0
2014-Apr-11 12:33N 36°56' E 002°06'1110.9
2014-Apr-11 11:33N 36°57' E 002°19'1110.6
2014-Apr-11 10:33N 36°60' E 002°32'1110.9
2014-Apr-11 09:33N 37°03' E 002°45'1212.5
2014-Apr-11 08:34N 37°04' E 003°01'1212.0
2014-Apr-11 07:32N 37°06' E 003°16'1111.1
2014-Apr-11 06:33N 37°07' E 003°29'1411.0
2014-Apr-11 05:16N 37°09' E 003°47'811.4
2014-Apr-11 04:33N 37°10' E 003°57'1111.2
2014-Apr-11 03:33N 37°12' E 004°11'1111.0
2014-Apr-11 02:33N 37°14' E 004°25'1211.9
2014-Apr-11 01:33N 37°15' E 004°39'1211.7
2014-Apr-11 00:33N 37°17' E 004°54'1111.3
2014-Apr-10 23:33N 37°18' E 005°08'28211.7
2014-Apr-09 23:30N 37°32' E 011°03'3811.8
2014-Apr-09 20:18N 37°13' E 011°44'912.0
2014-Apr-09 19:31N 37°09' E 011°54'1611.8
2014-Apr-09 18:12N 37°01' E 012°10'911.8
2014-Apr-09 17:28N 36°56' E 012°20'1111.9
2014-Apr-09 16:33N 36°52' E 012°32'1312.1
2014-Apr-09 15:31N 36°47' E 012°47'1112.0
2014-Apr-09 14:34N 36°43' E 013°00'1211.6
2014-Apr-09 13:34N 36°39' E 013°14'1211.7
2014-Apr-09 12:34N 36°34' E 013°27'1211.8
2014-Apr-09 11:33N 36°30' E 013°41'1211.9
2014-Apr-09 10:33N 36°26' E 013°55'1212.3
2014-Apr-09 09:33N 36°21' E 014°09'1212.5
2014-Apr-09 08:33N 36°17' E 014°23'1312.5
2014-Apr-09 07:33N 36°12' E 014°38'1312.5
2014-Apr-09 06:33N 36°07' E 014°52'1212.0
2014-Apr-09 05:33N 36°03' E 015°06'1211.8
2014-Apr-09 04:33N 35°59' E 015°20'2411.9
2014-Apr-09 02:30N 35°50' E 015°48'1112.2
2014-Apr-09 01:33N 35°45' E 016°01'  

Dump ship's entire track history

sailing weather and tide predictions

As Suwayq — V7XU8 — position and weather